Athina V — 9H8661 — position and weather

sailwx.info

Track history (hours):
 
Tides and Currents Weather Stations Pressure Air Temp Water Temp Dewpoint Dewpoint Depression Visibility Wind Speed Wind Dir Waves Ship Positions

Athina V

Last reported at 2015-Aug-23 14:26 UTC. Time now 2015-Aug-31 06:47 UTC.
Position N 41°02' E 013°48'.

Length 19 m; draft 3 m.

Type: Sailing vessel. MMSI: 256655000.

Date/timePositionNaut miles runAvg speedWind from/ knotsBaromVisibWave heightAir tempDewpointWater temp
2015-Aug-23 14:26N 41°02' E 013°48'6 7.3
2015-Aug-23 13:33N 40°56' E 013°52'7 6.6
2015-Aug-23 12:33N 40°50' E 013°55'6 5.8
2015-Aug-23 11:33N 40°45' E 013°58'2 0.1
2015-Aug-22 17:33N 40°45' E 014°00'3 3.1
2015-Aug-22 16:33N 40°42' E 014°03'5 5.4
2015-Aug-22 15:33N 40°40' E 014°09'5 5.2
2015-Aug-22 14:33N 40°37' E 014°15'  
2015-Aug-19 17:16N 38°34' E 015°31'3 4.4
2015-Aug-19 16:31N 38°31' E 015°33'6 6.1
2015-Aug-19 15:31N 38°26' E 015°36'6 5.9
2015-Aug-19 14:33N 38°20' E 015°39'5 4.9
2015-Aug-19 13:33N 38°16' E 015°40'5 4.8
2015-Aug-19 12:33N 38°11' E 015°38'6 6.1
2015-Aug-19 11:33N 38°05' E 015°38'6 6.4
2015-Aug-19 10:33N 37°59' E 015°38'  
Track history (hours):
 
Tides and Currents Weather Stations Pressure Air Temp Water Temp Dewpoint Dewpoint Depression Visibility Wind Speed Wind Dir Waves Ship Positions

Athina V

Last reported at 2015-Aug-23 14:26 UTC. Time now 2015-Aug-31 06:47 UTC.
Position N 41°02' E 013°48'.

Length 19 m; draft 3 m.

Type: Sailing vessel. MMSI: 256655000.

Date/timePositionNaut miles runAvg speedWind from/ knotsBaromVisibWave heightAir tempDewpointWater temp
2015-Aug-23 14:26N 41°02' E 013°48'6 7.3
2015-Aug-23 13:33N 40°56' E 013°52'7 6.6
2015-Aug-23 12:33N 40°50' E 013°55'6 5.8
2015-Aug-23 11:33N 40°45' E 013°58'2 0.1
2015-Aug-22 17:33N 40°45' E 014°00'3 3.1
2015-Aug-22 16:33N 40°42' E 014°03'5 5.4
2015-Aug-22 15:33N 40°40' E 014°09'5 5.2
2015-Aug-22 14:33N 40°37' E 014°15'  
2015-Aug-19 17:16N 38°34' E 015°31'3 4.4
2015-Aug-19 16:31N 38°31' E 015°33'6 6.1
2015-Aug-19 15:31N 38°26' E 015°36'6 5.9
2015-Aug-19 14:33N 38°20' E 015°39'5 4.9
2015-Aug-19 13:33N 38°16' E 015°40'5 4.8
2015-Aug-19 12:33N 38°11' E 015°38'6 6.1
2015-Aug-19 11:33N 38°05' E 015°38'6 6.4
2015-Aug-19 10:33N 37°59' E 015°38'  

Dump ship's entire track history